Time;durP1;ratioP1;P1;durP2;ratioP2;P2;SDS_P1;SDS_P2;PMS_P1;PMS_P2;Temp;Humidity;BMP_temperature;BMP_pressure;BME280_temperature;BME280_humidity;BME280_pressure;Samples;Min_cycle;Max_cycle;Signal;HPM_P1;HPM_P2
2021/05/13 00:01:53;;;;;;;4.88;3.40;;;13.40;90.90;;;;;;5089548;28;20048;-74
2021/05/13 00:04:20;;;;;;;4.38;3.20;;;13.40;90.80;;;;;;5089417;28;20878;-74
2021/05/13 00:06:47;;;;;;;5.78;3.47;;;13.40;90.80;;;;;;5089271;28;20109;-74
2021/05/13 00:09:14;;;;;;;7.18;3.95;;;13.40;90.70;;;;;;5090261;28;20059;-74
2021/05/13 00:11:44;;;;;;;6.95;3.70;;;13.40;91.30;;;;;;5089095;28;20079;-74
2021/05/13 00:14:11;;;;;;;6.35;3.47;;;13.20;91.50;;;;;;5089340;28;20059;-74
2021/05/13 00:16:39;;;;;;;12.00;3.28;;;13.20;91.70;;;;;;5089458;28;20486;-75
2021/05/13 00:19:09;;;;;;;7.13;3.17;;;13.20;91.50;;;;;;5090134;28;20051;-74
2021/05/13 00:21:43;;;;;;;6.43;3.38;;;13.20;91.60;;;;;;5080511;28;20056;-74
2021/05/13 00:24:11;;;;;;;6.43;3.38;;;13.30;91.60;;;;;;5087781;28;20475;-74
2021/05/13 00:26:45;;;;;;;6.22;3.28;;;13.20;91.80;;;;;;5086262;28;20425;-75
2021/05/13 00:29:16;;;;;;;5.88;3.35;;;13.10;92.10;;;;;;5092163;28;20113;-74
2021/05/13 00:31:43;;;;;;;9.20;4.28;;;13.00;92.80;;;;;;5086203;28;20076;-74
2021/05/13 00:34:11;;;;;;;7.90;4.65;;;13.00;93.40;;;;;;5089366;28;20056;-74
2021/05/13 00:36:39;;;;;;;9.32;4.57;;;12.90;93.20;;;;;;5089783;28;20056;-74
2021/05/13 00:39:07;;;;;;;5.63;3.70;;;12.90;93.50;;;;;;5081246;28;20055;-74
2021/05/13 00:41:35;;;;;;;9.45;3.83;;;13.00;93.40;;;;;;5083492;28;20080;-74
2021/05/13 00:44:03;;;;;;;4.80;3.40;;;12.90;94.00;;;;;;5087438;28;20079;-74
2021/05/13 00:46:30;;;;;;;7.60;3.70;;;12.80;94.10;;;;;;5090333;28;20110;-75
2021/05/13 00:49:07;;;;;;;6.20;3.40;;;12.70;94.70;;;;;;5089298;28;20052;-74
2021/05/13 00:51:36;;;;;;;8.50;3.55;;;12.70;95.00;;;;;;5089789;28;20482;-74
2021/05/13 00:54:04;;;;;;;4.05;3.15;;;12.80;95.30;;;;;;5089830;28;20048;-74
2021/05/13 00:56:32;;;;;;;5.97;3.40;;;12.80;95.30;;;;;;5089770;28;20101;-74
2021/05/13 00:59:07;;;;;;;5.93;3.30;;;12.90;95.20;;;;;;5084291;28;20048;-74
2021/05/13 01:04:15;;;;;;;7.22;4.00;;;12.90;95.20;;;;;;5089389;28;20489;-74
2021/05/13 01:06:44;;;;;;;7.00;4.30;;;12.90;95.60;;;;;;5087436;28;20643;-74
2021/05/13 01:09:11;;;;;;;8.13;4.28;;;12.80;95.80;;;;;;5091343;28;20478;-74
2021/05/13 01:11:43;;;;;;;8.30;4.43;;;12.70;96.10;;;;;;5085218;28;20695;-75
2021/05/13 01:16:49;;;;;;;8.43;4.50;;;12.70;96.60;;;;;;5089609;28;20125;-74
2021/05/13 01:19:17;;;;;;;9.65;4.70;;;12.70;96.60;;;;;;5084372;28;20551;-74
2021/05/13 01:21:44;;;;;;;8.85;4.53;;;12.70;96.80;;;;;;5085048;28;20079;-74
2021/05/13 01:24:12;;;;;;;9.35;4.95;;;12.80;96.90;;;;;;5086978;28;20052;-75
2021/05/13 01:26:47;;;;;;;8.85;4.70;;;12.80;96.80;;;;;;5087629;28;20109;-74
2021/05/13 01:29:20;;;;;;;8.95;4.85;;;12.80;96.80;;;;;;5088135;28;20131;-74
2021/05/13 01:31:48;;;;;;;6.07;4.32;;;12.60;97.40;;;;;;5085597;28;20109;-75
2021/05/13 01:34:16;;;;;;;8.38;4.13;;;12.60;97.70;;;;;;5085689;28;20498;-74
2021/05/13 01:36:43;;;;;;;8.82;4.47;;;12.60;97.70;;;;;;5085319;28;20840;-74
2021/05/13 01:39:12;;;;;;;7.15;4.45;;;12.60;97.50;;;;;;5080991;28;20051;-74
2021/05/13 01:41:40;;;;;;;6.95;4.22;;;12.60;97.80;;;;;;5084057;28;20051;-74
2021/05/13 01:44:08;;;;;;;5.88;4.38;;;12.60;98.30;;;;;;5086580;28;20151;-74
2021/05/13 01:46:35;;;;;;;5.53;4.30;;;12.50;98.50;;;;;;5089097;28;20833;-74
2021/05/13 01:49:04;;;;;;;7.82;4.65;;;12.50;98.30;;;;;;5088596;28;20055;-74
2021/05/13 01:51:31;;;;;;;10.32;4.10;;;12.50;98.60;;;;;;5087344;28;20047;-74
2021/05/13 01:53:58;;;;;;;7.75;4.32;;;12.70;98.40;;;;;;5082513;28;20048;-75
2021/05/13 01:56:25;;;;;;;7.75;4.65;;;12.80;97.90;;;;;;5086088;28;20478;-75
2021/05/13 01:58:52;;;;;;;6.05;4.53;;;12.70;98.20;;;;;;5087130;28;20143;-75
2021/05/13 02:01:18;;;;;;;6.40;4.00;;;12.70;98.40;;;;;;5086889;28;20498;-75
2021/05/13 02:03:46;;;;;;;6.15;4.20;;;12.70;98.00;;;;;;5088417;28;20062;-75
2021/05/13 02:06:13;;;;;;;10.38;3.78;;;12.80;98.10;;;;;;5086607;28;20432;-75
2021/05/13 02:08:40;;;;;;;10.73;4.57;;;12.50;98.10;;;;;;5076138;28;20116;-75
2021/05/13 02:11:06;;;;;;;7.85;4.18;;;12.50;98.60;;;;;;5081352;28;20134;-75
2021/05/13 02:13:34;;;;;;;6.75;4.30;;;12.40;99.20;;;;;;5085456;28;20052;-73
2021/05/13 02:16:00;;;;;;;5.95;3.60;;;12.40;99.40;;;;;;5089337;28;20043;-74
2021/05/13 02:18:28;;;;;;;6.25;4.43;;;12.40;99.50;;;;;;5084754;28;20047;-73
2021/05/13 02:20:54;;;;;;;6.80;4.25;;;12.40;99.70;;;;;;5085724;28;20127;-74
2021/05/13 02:23:22;;;;;;;9.27;4.63;;;12.50;99.80;;;;;;5084146;28;20125;-74
2021/05/13 02:25:50;;;;;;;9.45;4.60;;;12.40;99.80;;;;;;5088021;28;20515;-74
2021/05/13 02:28:18;;;;;;;10.07;4.47;;;12.30;99.90;;;;;;5089935;28;20096;-73
2021/05/13 02:30:45;;;;;;;7.82;4.32;;;12.20;99.90;;;;;;5083110;28;20139;-74
2021/05/13 02:33:13;;;;;;;8.20;5.00;;;12.00;99.90;;;;;;5086276;28;20043;-73
2021/05/13 02:35:40;;;;;;;8.45;4.70;;;12.10;99.90;;;;;;5086367;28;20044;-73
2021/05/13 02:38:07;;;;;;;11.10;5.18;;;12.30;99.90;;;;;;5082784;28;20051;-73
2021/05/13 02:40:34;;;;;;;11.73;5.05;;;12.20;99.90;;;;;;5085916;28;20155;-74
2021/05/13 02:43:04;;;;;;;10.82;5.40;;;12.20;99.90;;;;;;5082394;28;20048;-73
2021/05/13 02:45:31;;;;;;;;;;;12.20;99.90;;;;;;5085098;28;20227;-74
2021/05/13 02:47:58;;;;;;;12.00;5.05;;;12.20;99.90;;;;;;5086065;28;20005;-72
2021/05/13 02:50:25;;;;;;;11.27;5.53;;;12.20;99.90;;;;;;5097590;27;20105;-73
2021/05/13 02:52:53;;;;;;;8.07;5.47;;;12.30;99.90;;;;;;5086166;28;20075;-73
2021/05/13 02:55:20;;;;;;;8.25;5.05;;;12.20;99.90;;;;;;5085144;28;20140;-73
2021/05/13 02:57:49;;;;;;;8.98;5.22;;;12.10;99.90;;;;;;5087169;28;20043;-73
2021/05/13 03:02:46;;;;;;;7.57;5.40;;;12.20;99.90;;;;;;5082026;28;20621;-73
2021/05/13 03:05:15;;;;;;;8.13;4.75;;;12.30;99.90;;;;;;5086525;28;20054;-73
2021/05/13 03:07:48;;;;;;;8.20;4.60;;;12.30;99.90;;;;;;5085889;28;20101;-73
2021/05/13 03:10:22;;;;;;;8.35;5.18;;;12.40;99.90;;;;;;5086937;28;20101;-73
2021/05/13 03:12:50;;;;;;;10.95;5.35;;;12.40;99.90;;;;;;5087848;28;20101;-73
2021/05/13 03:15:17;;;;;;;8.45;5.30;;;12.40;99.90;;;;;;5084799;28;20051;-73
2021/05/13 03:17:44;;;;;;;8.07;5.10;;;12.20;99.90;;;;;;5085145;28;20052;-73
2021/05/13 03:20:15;;;;;;;6.05;4.70;;;12.10;99.90;;;;;;5077046;28;20048;-76
2021/05/13 03:22:42;;;;;;;;;;;12.00;99.90;;;;;;5080902;28;20044;-76
2021/05/13 03:25:10;;;;;;;7.43;4.80;;;12.10;99.90;;;;;;5074300;28;19920;-73
2021/05/13 03:27:51;;;;;;;9.40;5.57;;;11.90;99.90;;;;;;5079527;28;20076;-73
2021/05/13 03:30:20;;;;;;;8.38;5.20;;;11.90;99.90;;;;;;5078500;28;20080;-73
2021/05/13 03:32:47;;;;;;;11.07;4.97;;;11.90;99.90;;;;;;5075783;28;20060;-73
2021/05/13 03:35:14;;;;;;;9.52;5.05;;;12.10;99.90;;;;;;5084994;28;20051;-73
2021/05/13 03:37:41;;;;;;;11.02;5.80;;;12.10;99.90;;;;;;5075156;28;20044;-73
2021/05/13 03:40:09;;;;;;;8.10;4.60;;;12.00;99.90;;;;;;5085499;28;20079;-73
2021/05/13 03:42:36;;;;;;;11.48;6.60;;;12.00;99.90;;;;;;5084849;28;20052;-73
2021/05/13 03:45:05;;;;;;;11.57;6.28;;;11.90;99.90;;;;;;5076092;28;20098;-73
2021/05/13 03:47:31;;;;;;;9.77;5.30;;;11.60;99.90;;;;;;5078246;28;20102;-72
2021/05/13 03:49:58;;;;;;;8.27;5.43;;;11.60;99.90;;;;;;5078043;28;20634;-72
2021/05/13 03:52:25;;;;;;;6.75;5.20;;;11.60;99.90;;;;;;5079738;28;20052;-73
2021/05/13 03:54:52;;;;;;;6.85;4.72;;;11.60;99.90;;;;;;5076485;28;20041;-73
2021/05/13 03:57:19;;;;;;;10.32;5.13;;;11.60;99.90;;;;;;5078323;28;20082;-73
2021/05/13 03:59:45;;;;;;;8.40;5.40;;;11.60;99.90;;;;;;5076643;28;20048;-73
2021/05/13 04:02:28;;;;;;;10.30;5.15;;;11.60;99.90;;;;;;5081767;28;20471;-73
2021/05/13 04:04:55;;;;;;;9.57;4.97;;;11.70;99.90;;;;;;5078730;28;20149;-73
2021/05/13 04:07:22;;;;;;;10.70;4.50;;;11.70;99.90;;;;;;5081301;28;20053;-73
2021/05/13 04:09:50;;;;;;;9.75;4.53;;;11.70;99.90;;;;;;5076930;28;20090;-73
2021/05/13 04:12:17;;;;;;;7.75;5.20;;;11.70;99.90;;;;;;5071966;28;20485;-73
2021/05/13 04:14:44;;;;;;;7.50;4.97;;;11.70;99.90;;;;;;5085458;28;20043;-73
2021/05/13 04:17:10;;;;;;;6.63;4.97;;;11.70;99.90;;;;;;5083308;28;20093;-73
2021/05/13 04:19:37;;;;;;;11.63;5.00;;;11.70;99.90;;;;;;5087803;28;20040;-73
2021/05/13 04:22:04;;;;;;;6.85;4.70;;;11.70;99.90;;;;;;5086230;28;20060;-73
2021/05/13 04:24:31;;;;;;;13.82;5.05;;;11.90;99.90;;;;;;5078053;28;20121;-73
2021/05/13 04:26:58;;;;;;;10.82;5.20;;;11.90;99.90;;;;;;5079711;28;20460;-73
2021/05/13 04:29:25;;;;;;;9.10;5.10;;;11.70;99.90;;;;;;5082441;28;20444;-73
2021/05/13 04:31:52;;;;;;;8.23;4.70;;;11.80;99.90;;;;;;5083529;28;20048;-73
2021/05/13 04:34:19;;;;;;;8.57;5.13;;;11.90;99.90;;;;;;5083172;28;20053;-73
2021/05/13 04:36:46;;;;;;;7.38;4.90;;;12.00;99.90;;;;;;5081700;28;20437;-73
2021/05/13 04:39:13;;;;;;;8.68;5.22;;;12.10;99.90;;;;;;5082812;28;20087;-73
2021/05/13 04:41:40;;;;;;;7.63;4.90;;;12.20;99.90;;;;;;5086039;28;20172;-73
2021/05/13 04:44:07;;;;;;;10.48;5.38;;;12.10;99.90;;;;;;5088812;28;20105;-76
2021/05/13 04:46:36;;;;;;;8.15;5.15;;;12.00;99.90;;;;;;5084089;28;20082;-76
2021/05/13 04:51:35;;;;;;;10.65;5.20;;;12.10;99.90;;;;;;5076164;28;20079;-76
2021/05/13 04:54:03;;;;;;;7.78;5.40;;;12.20;99.90;;;;;;5081986;28;20040;-77
2021/05/13 04:56:31;;;;;;;12.65;5.47;;;12.20;99.90;;;;;;5082675;28;20128;-77
2021/05/13 04:58:58;;;;;;;7.25;5.03;;;12.10;99.90;;;;;;5088414;28;20106;-77
2021/05/13 05:01:26;;;;;;;7.60;4.25;;;12.00;99.90;;;;;;5082325;28;20045;-76
2021/05/13 05:03:53;;;;;;;9.93;4.93;;;12.00;99.90;;;;;;5079429;28;20040;-77
2021/05/13 05:06:19;;;;;;;6.50;4.63;;;12.20;99.90;;;;;;5079548;28;20433;-76
2021/05/13 05:08:46;;;;;;;12.43;4.90;;;12.20;99.90;;;;;;5082176;28;20083;-77
2021/05/13 05:11:16;;;;;;;7.95;5.03;;;12.20;99.90;;;;;;5076469;28;20053;-76
2021/05/13 05:13:42;;;;;;;8.35;4.93;;;12.20;99.90;;;;;;5080486;28;20139;-76
2021/05/13 05:16:09;;;;;;;7.30;4.88;;;12.20;99.90;;;;;;5084298;28;20126;-76
2021/05/13 05:18:36;;;;;;;8.38;5.15;;;12.20;99.90;;;;;;5082455;28;20077;-76
2021/05/13 05:21:03;;;;;;;10.93;5.47;;;12.10;99.90;;;;;;5079589;28;20705;-76
2021/05/13 05:23:30;;;;;;;7.45;4.70;;;11.90;99.90;;;;;;5077909;28;20139;-76
2021/05/13 05:25:58;;;;;;;10.98;5.38;;;11.90;99.90;;;;;;5077229;28;20071;-76
2021/05/13 05:28:26;;;;;;;9.00;5.00;;;12.00;99.90;;;;;;5102091;28;20457;-77
2021/05/13 05:30:53;;;;;;;9.65;5.32;;;11.90;99.90;;;;;;5076309;28;20044;-77
2021/05/13 05:33:22;;;;;;;8.18;5.22;;;11.80;99.90;;;;;;5071691;28;20079;-77
2021/05/13 05:35:49;;;;;;;8.40;5.03;;;11.70;99.90;;;;;;5085337;28;20051;-76
2021/05/13 05:38:17;;;;;;;10.85;5.60;;;11.90;99.90;;;;;;5080432;28;20565;-76
2021/05/13 05:40:44;;;;;;;7.57;5.70;;;12.00;99.90;;;;;;5080716;28;20659;-76
2021/05/13 05:43:10;;;;;;;8.43;5.70;;;11.90;99.90;;;;;;5080585;28;20083;-76
2021/05/13 05:45:37;;;;;;;8.55;6.05;;;11.80;99.90;;;;;;5077133;28;20124;-77
2021/05/13 05:48:05;;;;;;;10.85;5.60;;;11.90;99.90;;;;;;5081408;28;20136;-76
2021/05/13 05:50:35;;;;;;;8.70;5.70;;;11.90;99.90;;;;;;5081596;28;20105;-77
2021/05/13 05:53:03;;;;;;;9.10;5.80;;;11.90;99.90;;;;;;5079177;28;20048;-76
2021/05/13 05:55:31;;;;;;;11.73;5.80;;;12.00;99.90;;;;;;5086481;28;20534;-77
2021/05/13 05:57:59;;;;;;;9.00;5.90;;;12.00;99.90;;;;;;5080837;28;20051;-77
2021/05/13 06:00:26;;;;;;;9.25;5.20;;;12.00;99.90;;;;;;5079681;28;20414;-76
2021/05/13 06:02:53;;;;;;;12.63;5.60;;;12.20;99.90;;;;;;5080138;28;20490;-77
2021/05/13 06:05:20;;;;;;;11.30;5.45;;;12.40;99.90;;;;;;5073750;28;20049;-76
2021/05/13 06:07:47;;;;;;;11.07;6.07;;;12.10;99.90;;;;;;5081915;28;20049;-77
2021/05/13 06:10:14;;;;;;;11.38;5.43;;;12.50;99.90;;;;;;5079570;28;20135;-77
2021/05/13 06:12:42;;;;;;;7.55;5.40;;;12.60;99.90;;;;;;5076323;28;20123;-76
2021/05/13 06:15:12;;;;;;;9.55;5.43;;;14.40;99.20;;;;;;5083736;28;20105;-76
2021/05/13 06:17:40;;;;;;;11.15;5.03;;;14.60;95.40;;;;;;5082925;28;20094;-74
2021/05/13 06:20:15;;;;;;;8.23;4.63;;;14.50;95.30;;;;;;5077436;28;20121;-73
2021/05/13 06:22:41;;;;;;;7.10;4.38;;;15.40;92.20;;;;;;5085816;28;20052;-74
2021/05/13 06:25:10;;;;;;;10.20;5.55;;;13.80;95.50;;;;;;5079804;28;20551;-74
2021/05/13 06:27:36;;;;;;;11.73;5.25;;;13.60;96.00;;;;;;5080200;28;20044;-73
2021/05/13 06:30:05;;;;;;;8.20;4.47;;;13.30;96.90;;;;;;5084580;28;20048;-74
2021/05/13 06:32:31;;;;;;;9.95;5.35;;;13.60;97.00;;;;;;5079639;28;20105;-74
2021/05/13 06:34:59;;;;;;;7.13;4.28;;;13.50;96.60;;;;;;5078764;28;20102;-73
2021/05/13 06:37:25;;;;;;;10.57;4.93;;;12.90;98.00;;;;;;5082648;28;20429;-74
2021/05/13 06:39:52;;;;;;;8.82;4.85;;;12.80;99.70;;;;;;5069199;28;20079;-74
2021/05/13 06:42:19;;;;;;;10.00;4.60;;;13.30;99.50;;;;;;5083389;28;20079;-74
2021/05/13 06:44:48;;;;;;;9.10;4.60;;;14.50;96.30;;;;;;5087010;28;20070;-74
2021/05/13 06:47:15;;;;;;;7.72;3.92;;;14.40;95.20;;;;;;5085653;28;20196;-74
2021/05/13 06:49:42;;;;;;;8.77;4.55;;;14.30;95.30;;;;;;5086936;28;20141;-74
2021/05/13 06:52:09;;;;;;;7.28;4.80;;;14.10;95.30;;;;;;5085544;28;20100;-74
2021/05/13 06:54:36;;;;;;;7.38;4.13;;;14.20;95.70;;;;;;5086357;28;20106;-74
2021/05/13 06:57:03;;;;;;;7.25;4.15;;;14.40;94.50;;;;;;5087922;28;20072;-74
2021/05/13 06:59:30;;;;;;;8.98;4.10;;;14.50;94.20;;;;;;5086519;28;20071;-74
2021/05/13 07:01:56;;;;;;;8.70;4.22;;;14.60;93.20;;;;;;5086617;28;20456;-74
2021/05/13 07:04:26;;;;;;;10.18;4.18;;;14.70;93.10;;;;;;5085475;28;20082;-74
2021/05/13 07:06:53;;;;;;;6.35;3.65;;;14.60;92.90;;;;;;5089018;28;20446;-74
2021/05/13 07:09:21;;;;;;;10.23;3.42;;;14.70;93.10;;;;;;5084838;28;20072;-74
2021/05/13 07:11:47;;;;;;;6.20;3.42;;;15.10;92.20;;;;;;5088252;28;20403;-74
2021/05/13 07:14:21;;;;;;;5.80;3.72;;;16.20;90.10;;;;;;5086881;28;20044;-73
2021/05/13 07:16:48;;;;;;;8.93;3.53;;;15.80;88.10;;;;;;5087655;28;20052;-74
2021/05/13 07:19:17;;;;;;;10.30;3.65;;;14.90;90.20;;;;;;5086279;28;20119;-74
2021/05/13 07:21:44;;;;;;;7.38;3.22;;;14.90;90.80;;;;;;5086652;28;20467;-75
2021/05/13 07:24:11;;;;;;;12.18;3.00;;;14.90;89.30;;;;;;5086950;28;20081;-75
2021/05/13 07:26:38;;;;;;;6.20;3.05;;;14.80;90.40;;;;;;5084531;28;20886;-74
2021/05/13 07:29:05;;;;;;;7.57;3.58;;;15.60;88.00;;;;;;5087559;28;20473;-74
2021/05/13 07:31:32;;;;;;;8.93;3.28;;;15.90;85.60;;;;;;5083983;28;20052;-74
2021/05/13 07:33:59;;;;;;;5.95;2.95;;;15.50;86.80;;;;;;5085466;28;20051;-75
2021/05/13 07:36:28;;;;;;;7.25;3.33;;;15.30;86.80;;;;;;5087232;28;20140;-74
2021/05/13 07:38:55;;;;;;;6.25;3.25;;;15.20;88.30;;;;;;5084555;28;20149;-75
2021/05/13 07:41:23;;;;;;;9.10;3.47;;;15.20;88.60;;;;;;5084688;28;20127;-74
2021/05/13 07:43:52;;;;;;;6.00;2.88;;;15.10;88.80;;;;;;5086572;28;20083;-74
2021/05/13 07:46:20;;;;;;;9.63;2.85;;;15.40;87.00;;;;;;5086362;28;20076;-75
2021/05/13 07:48:50;;;;;;;5.65;2.75;;;16.30;83.50;;;;;;5088055;28;20058;-75
2021/05/13 07:51:19;;;;;;;4.93;3.05;;;16.00;84.40;;;;;;5088401;28;20080;-75
2021/05/13 07:53:46;;;;;;;5.32;2.83;;;15.90;83.20;;;;;;5087953;28;20521;-75
2021/05/13 07:56:13;;;;;;;8.27;3.40;;;16.20;81.30;;;;;;5091035;28;20064;-74
2021/05/13 07:58:40;;;;;;;8.45;3.92;;;15.60;83.80;;;;;;5090750;28;20128;-75
2021/05/13 08:01:06;;;;;;;7.18;3.28;;;15.50;84.80;;;;;;5090237;28;20047;-75
2021/05/13 08:03:39;;;;;;;11.25;3.40;;;15.50;86.20;;;;;;5088912;28;20064;-76
2021/05/13 08:06:05;;;;;;;7.65;3.20;;;15.40;85.70;;;;;;5087973;28;20052;-74
2021/05/13 08:08:33;;;;;;;11.02;3.50;;;15.40;85.90;;;;;;5089675;28;20182;-75
2021/05/13 08:11:01;;;;;;;7.05;3.33;;;15.50;85.20;;;;;;5087694;28;20072;-75
2021/05/13 08:13:30;;;;;;;6.40;3.03;;;15.50;84.50;;;;;;5088973;28;20052;-74
2021/05/13 08:15:57;;;;;;;10.07;3.65;;;15.30;85.50;;;;;;5092189;28;20786;-75
2021/05/13 08:18:24;;;;;;;8.13;3.80;;;15.40;86.20;;;;;;5089531;28;21566;-75
2021/05/13 08:20:52;;;;;;;7.82;3.70;;;15.60;86.60;;;;;;5090620;28;20052;-74
2021/05/13 08:23:18;;;;;;;8.23;3.55;;;15.60;87.30;;;;;;5088362;28;20091;-75
2021/05/13 08:25:45;;;;;;;9.57;3.30;;;15.60;86.00;;;;;;5087804;28;20060;-74
2021/05/13 08:28:12;;;;;;;7.72;3.60;;;15.60;86.50;;;;;;5090990;28;20083;-74
2021/05/13 08:30:39;;;;;;;8.10;3.20;;;15.70;86.70;;;;;;5087778;28;21361;-74
2021/05/13 08:33:06;;;;;;;8.85;3.67;;;15.80;85.50;;;;;;5089224;28;20772;-74
2021/05/13 08:35:33;;;;;;;9.07;3.20;;;15.80;82.40;;;;;;5087904;28;20093;-73
2021/05/13 08:37:59;;;;;;;8.23;3.33;;;15.90;81.30;;;;;;5087234;28;20048;-73
2021/05/13 08:40:26;;;;;;;6.78;3.40;;;15.90;82.50;;;;;;5088464;28;20093;-74
2021/05/13 08:42:53;;;;;;;5.18;3.13;;;16.00;83.60;;;;;;5089600;28;20079;-74
2021/05/13 08:45:20;;;;;;;5.82;3.38;;;16.10;79.80;;;;;;5089493;28;20469;-74
2021/05/13 08:47:47;;;;;;;9.63;3.60;;;16.10;81.60;;;;;;5088375;28;20064;-74
2021/05/13 08:50:17;;;;;;;7.70;3.40;;;16.30;80.90;;;;;;5087774;28;20060;-74
2021/05/13 08:52:44;;;;;;;8.80;3.35;;;16.40;81.00;;;;;;5088974;28;20106;-73
2021/05/13 08:55:15;;;;;;;10.07;3.10;;;16.60;80.10;;;;;;5085732;28;20056;-74
2021/05/13 08:57:43;;;;;;;7.88;3.30;;;16.70;79.00;;;;;;5088184;28;20062;-74
2021/05/13 09:00:10;;;;;;;4.90;2.53;;;16.80;79.00;;;;;;5088441;28;20056;-74
2021/05/13 09:02:37;;;;;;;5.60;2.20;;;16.80;78.40;;;;;;5085197;28;20060;-75
2021/05/13 09:05:07;;;;;;;6.40;2.35;;;16.70;73.60;;;;;;5088430;28;20052;-74
2021/05/13 09:07:33;;;;;;;4.17;2.20;;;16.80;72.70;;;;;;5090212;28;20074;-74
2021/05/13 09:10:08;;;;;;;5.68;2.22;;;17.00;72.60;;;;;;5088094;28;20113;-74
2021/05/13 09:12:45;;;;;;;4.63;1.90;;;17.40;71.30;;;;;;5099447;27;20048;-74
2021/05/13 09:15:23;;;;;;;7.47;2.20;;;17.50;67.40;;;;;;5088253;28;20066;-75
2021/05/13 09:17:57;;;;;;;6.18;1.98;;;17.60;67.80;;;;;;5086658;28;20135;-76
2021/05/13 09:20:33;;;;;;;12.73;2.00;;;17.50;65.40;;;;;;5089671;28;20051;-74
2021/05/13 09:23:09;;;;;;;6.05;1.90;;;17.70;65.50;;;;;;5085274;28;20227;-74
2021/05/13 09:25:36;;;;;;;5.53;1.75;;;17.80;64.40;;;;;;5089088;28;20101;-74
2021/05/13 09:28:03;;;;;;;8.85;2.00;;;17.60;65.30;;;;;;5089543;28;20080;-74
2021/05/13 09:30:30;;;;;;;6.25;1.77;;;17.70;60.90;;;;;;5088144;28;20051;-74
2021/05/13 09:33:02;;;;;;;4.20;1.70;;;17.50;60.00;;;;;;5086904;28;20047;-75
2021/05/13 09:35:32;;;;;;;3.58;1.58;;;17.50;61.20;;;;;;5088319;28;20149;-75
2021/05/13 09:38:01;;;;;;;10.00;2.03;;;17.60;57.40;;;;;;5086034;28;20048;-75
2021/05/13 09:40:50;;;;;;;3.47;1.50;;;17.70;59.10;;;;;;5087450;28;20047;-74
2021/05/13 09:43:22;;;;;;;4.25;1.20;;;17.80;58.40;;;;;;5087043;28;20051;-74
2021/05/13 09:45:58;;;;;;;4.57;1.60;;;17.80;56.90;;;;;;5088115;28;20093;-74
2021/05/13 09:48:38;;;;;;;3.53;1.05;;;17.80;58.10;;;;;;5095371;27;20499;-74
2021/05/13 09:51:22;;;;;;;5.63;1.52;;;18.00;57.80;;;;;;5087095;28;20052;-74
2021/05/13 09:54:04;;;;;;;4.57;1.10;;;18.10;55.90;;;;;;5086855;28;20068;-73
2021/05/13 09:56:31;;;;;;;4.43;1.23;;;18.10;56.40;;;;;;5089759;28;20075;-75
2021/05/13 09:59:19;;;;;;;5.40;1.10;;;18.10;56.90;;;;;;5087417;28;20082;-76
2021/05/13 10:01:46;;;;;;;4.93;1.25;;;18.10;55.80;;;;;;5089969;28;20052;-74
2021/05/13 10:04:15;;;;;;;8.13;1.10;;;18.30;54.40;;;;;;5085410;28;20397;-75
2021/05/13 10:06:41;;;;;;;4.75;1.33;;;18.30;54.00;;;;;;5086857;28;20067;-74
2021/05/13 10:09:08;;;;;;;3.83;1.50;;;18.40;55.10;;;;;;5086772;28;20056;-75
2021/05/13 10:11:35;;;;;;;5.80;1.50;;;18.50;57.10;;;;;;5087878;28;20055;-74
2021/05/13 10:14:04;;;;;;;6.82;1.80;;;18.60;57.00;;;;;;5085710;28;20080;-74
2021/05/13 10:16:33;;;;;;;7.18;1.60;;;18.60;56.40;;;;;;5086581;28;20097;-74
2021/05/13 10:19:09;;;;;;;4.18;1.60;;;18.70;56.70;;;;;;5086127;28;20409;-76
2021/05/13 10:21:40;;;;;;;5.97;1.90;;;18.80;56.30;;;;;;5088877;28;20109;-75
2021/05/13 10:24:12;;;;;;;4.00;1.70;;;18.90;56.40;;;;;;5084080;28;20138;-74
2021/05/13 10:26:40;;;;;;;5.75;1.75;;;18.90;56.50;;;;;;5098338;27;20089;-74
2021/05/13 10:29:19;;;;;;;8.48;2.25;;;19.30;56.70;;;;;;5084611;28;20372;-74
2021/05/13 10:32:16;;;;;;;7.55;1.83;;;19.30;55.70;;;;;;5086374;28;20052;-79
2021/05/13 10:34:49;;;;;;;2.60;1.23;;;19.60;54.60;;;;;;5068282;28;20112;-78
2021/05/13 10:37:33;;;;;;;5.68;1.80;;;19.50;54.20;;;;;;5074012;28;20048;-79
2021/05/13 10:40:08;;;;;;;3.90;1.50;;;19.50;54.20;;;;;;5089634;27;20048;-79
2021/05/13 10:42:36;;;;;;;5.45;1.80;;;19.40;52.90;;;;;;5078293;28;20394;-79
2021/05/13 10:45:25;;;;;;;6.10;1.52;;;19.70;53.60;;;;;;5088578;27;20127;-78
2021/05/13 10:48:23;;;;;;;2.42;1.35;;;19.80;53.40;;;;;;5072763;28;20549;-78
2021/05/13 10:51:01;;;;;;;6.75;1.38;;;19.20;53.50;;;;;;5073619;28;20418;-79
2021/05/13 10:53:34;;;;;;;3.95;1.42;;;19.10;53.40;;;;;;5074615;28;20144;-78
2021/05/13 10:56:28;;;;;;;5.75;1.60;;;19.00;53.70;;;;;;5075287;28;20726;-78
2021/05/13 10:58:59;;;;;;;4.47;1.50;;;18.80;54.10;;;;;;5074906;28;20069;-78
2021/05/13 11:01:28;;;;;;;4.78;1.42;;;18.70;54.80;;;;;;5071614;28;20048;-79
2021/05/13 11:04:17;;;;;;;3.22;1.45;;;18.70;55.30;;;;;;5086315;28;20044;-79
2021/05/13 11:06:44;;;;;;;3.58;1.63;;;18.40;55.70;;;;;;5072373;28;20067;-78
2021/05/13 11:09:31;;;;;;;4.30;1.35;;;18.30;56.80;;;;;;5076852;28;20160;-79
2021/05/13 11:12:21;;;;;;;9.23;1.98;;;17.80;59.60;;;;;;5073361;28;20087;-79
2021/05/13 11:17:58;;;;;;;2.22;1.15;;;17.50;60.70;;;;;;5059017;28;20093;-78
2021/05/13 11:20:44;;;;;;;6.38;1.10;;;17.30;59.60;;;;;;5073071;28;20584;-79
2021/05/13 11:23:17;;;;;;;2.30;0.80;;;17.20;58.00;;;;;;5070115;28;20055;-79
2021/05/13 11:25:51;;;;;;;2.10;0.68;;;17.20;55.80;;;;;;5074532;28;20487;-79
2021/05/13 11:28:22;;;;;;;2.50;0.60;;;17.00;54.20;;;;;;5079787;28;20049;-78
2021/05/13 11:31:13;;;;;;;2.90;1.13;;;17.10;53.40;;;;;;5082079;28;20059;-79
2021/05/13 11:33:54;;;;;;;2.45;1.20;;;17.10;53.10;;;;;;5076089;28;20056;-77
2021/05/13 11:36:27;;;;;;;2.67;1.00;;;17.40;52.80;;;;;;5074689;28;20045;-75
2021/05/13 11:38:55;;;;;;;4.65;1.08;;;17.30;52.50;;;;;;5077153;28;20060;-81
2021/05/13 11:41:23;;;;;;;3.13;1.10;;;17.20;52.80;;;;;;5081497;28;20048;-81
2021/05/13 11:43:50;;;;;;;3.92;1.20;;;17.30;53.20;;;;;;5081900;28;20048;-83
2021/05/13 11:46:20;;;;;;;2.75;0.93;;;17.40;53.00;;;;;;5084243;28;20060;-79
2021/05/13 11:48:49;;;;;;;1.97;0.70;;;17.50;51.70;;;;;;5080532;28;20055;-82
2021/05/13 11:51:32;;;;;;;1.15;0.60;;;17.50;51.20;;;;;;5078380;28;20310;-84
2021/05/13 11:54:04;;;;;;;1.38;0.50;;;17.80;50.50;;;;;;5078869;28;20787;-84
2021/05/13 11:56:39;;;;;;;2.60;0.90;;;18.10;50.40;;;;;;5081203;28;20048;-83
2021/05/13 11:59:15;;;;;;;5.40;0.90;;;19.30;49.40;;;;;;5079193;28;20495;-84
2021/05/13 12:01:46;;;;;;;1.02;0.50;;;20.20;48.40;;;;;;5080146;28;20568;-84
2021/05/13 12:04:24;;;;;;;2.47;1.05;;;20.00;45.40;;;;;;5083059;28;20085;-85
2021/05/13 12:07:01;;;;;;;7.07;0.70;;;20.30;47.00;;;;;;5087274;28;20055;-84
2021/05/13 12:09:31;;;;;;;2.30;0.60;;;20.30;46.50;;;;;;5086779;28;20069;-86
2021/05/13 12:12:03;;;;;;;1.45;0.68;;;21.40;46.40;;;;;;5081550;28;20052;-84
2021/05/13 12:14:32;;;;;;;3.40;0.80;;;21.40;47.70;;;;;;5094964;27;20040;-84
2021/05/13 12:17:21;;;;;;;3.28;0.70;;;21.60;48.20;;;;;;5095471;27;20064;-85
2021/05/13 12:19:57;;;;;;;2.75;0.85;;;22.50;46.40;;;;;;5097698;27;20395;-85
2021/05/13 12:22:30;;;;;;;4.88;0.70;;;24.40;43.90;;;;;;5082582;28;20079;-85
2021/05/13 12:24:57;;;;;;;2.78;1.00;;;24.90;41.90;;;;;;5077209;28;20050;-80
2021/05/13 12:27:24;;;;;;;1.50;0.93;;;23.50;42.50;;;;;;5076857;28;20121;-79
2021/05/13 12:29:52;;;;;;;5.53;2.10;;;21.60;45.20;;;;;;5076831;28;21003;-80
2021/05/13 12:32:30;;;;;;;9.43;4.90;;;20.50;46.80;;;;;;5077666;28;20044;-80
2021/05/13 12:34:57;;;;;;;20.63;11.75;;;19.80;48.20;;;;;;5077134;28;20138;-78
2021/05/13 12:37:24;;;;;;;12.77;6.80;;;19.20;49.60;;;;;;5075611;28;20060;-79
2021/05/13 12:39:52;;;;;;;11.15;6.57;;;19.00;49.30;;;;;;5080057;28;20053;-73
2021/05/13 12:42:30;;;;;;;23.40;13.57;;;18.90;50.00;;;;;;5078525;28;20098;-76
2021/05/13 12:45:19;;;;;;;18.20;9.38;;;19.00;50.30;;;;;;5082608;28;20064;-80
2021/05/13 12:47:56;;;;;;;13.82;7.18;;;18.60;50.50;;;;;;5077122;28;20087;-77
2021/05/13 12:50:26;;;;;;;7.65;3.22;;;18.40;50.60;;;;;;5075618;28;20084;-77
2021/05/13 12:53:09;;;;;;;6.00;2.80;;;18.30;50.70;;;;;;5078178;28;20097;-77
2021/05/13 12:55:38;;;;;;;5.15;1.80;;;18.20;51.40;;;;;;5086659;28;20388;-77
2021/05/13 12:58:13;;;;;;;3.10;1.90;;;18.10;51.90;;;;;;5085523;28;20101;-77
2021/05/13 13:00:42;;;;;;;5.15;1.67;;;18.20;51.30;;;;;;5088090;28;20086;-77
2021/05/13 13:03:15;;;;;;;3.05;1.20;;;18.00;52.10;;;;;;5087596;28;20063;-77
2021/05/13 13:05:42;;;;;;;1.73;1.05;;;17.70;51.90;;;;;;5088250;28;20559;-77
2021/05/13 13:08:10;;;;;;;1.75;1.27;;;17.80;52.50;;;;;;5087910;28;20051;-77
2021/05/13 13:10:44;;;;;;;1.13;0.95;;;17.80;53.30;;;;;;5088214;28;20086;-77
2021/05/13 13:13:22;;;;;;;4.50;0.90;;;17.80;53.10;;;;;;5087246;28;20056;-78